sensor_id;sensor_type;location;lat;lon;timestamp;P1;durP1;ratioP1;P2;durP2;ratioP2
74219;SDS011;62580;54.416;11.120;2022-09-09T00:03:24;1.50;;;1.40;;
74219;SDS011;62580;54.416;11.120;2022-09-09T00:13:29;1.53;;;1.33;;
74219;SDS011;62580;54.416;11.120;2022-09-09T00:23:35;1.70;;;1.40;;
74219;SDS011;62580;54.416;11.120;2022-09-09T00:33:40;1.50;;;1.40;;
74219;SDS011;62580;54.416;11.120;2022-09-09T00:43:42;1.43;;;1.33;;
74219;SDS011;62580;54.416;11.120;2022-09-09T00:54:08;1.60;;;1.50;;
74219;SDS011;62580;54.416;11.120;2022-09-09T01:04:25;1.60;;;1.50;;
74219;SDS011;62580;54.416;11.120;2022-09-09T01:14:38;1.60;;;1.50;;
74219;SDS011;62580;54.416;11.120;2022-09-09T01:24:43;1.50;;;1.40;;
74219;SDS011;62580;54.416;11.120;2022-09-09T01:35:10;1.60;;;1.50;;
74219;SDS011;62580;54.416;11.120;2022-09-09T01:45:14;1.40;;;1.30;;
74219;SDS011;62580;54.416;11.120;2022-09-09T01:55:17;1.60;;;1.50;;
74219;SDS011;62580;54.416;11.120;2022-09-09T02:05:28;1.50;;;1.40;;
74219;SDS011;62580;54.416;11.120;2022-09-09T02:15:42;1.93;;;1.50;;
74219;SDS011;62580;54.416;11.120;2022-09-09T02:25:47;1.50;;;1.40;;
74219;SDS011;62580;54.416;11.120;2022-09-09T02:35:52;1.40;;;1.30;;
74219;SDS011;62580;54.416;11.120;2022-09-09T02:45:56;1.50;;;1.40;;
74219;SDS011;62580;54.416;11.120;2022-09-09T02:56:05;1.20;;;1.20;;
74219;SDS011;62580;54.416;11.120;2022-09-09T03:06:11;1.50;;;1.40;;
74219;SDS011;62580;54.416;11.120;2022-09-09T03:16:19;1.60;;;1.50;;
74219;SDS011;62580;54.416;11.120;2022-09-09T03:26:20;1.37;;;1.27;;
74219;SDS011;62580;54.416;11.120;2022-09-09T03:36:22;1.50;;;1.40;;
74219;SDS011;62580;54.416;11.120;2022-09-09T03:46:23;1.50;;;1.40;;
74219;SDS011;62580;54.416;11.120;2022-09-09T03:56:27;1.50;;;1.40;;
74219;SDS011;62580;54.416;11.120;2022-09-09T04:06:27;1.50;;;1.40;;
74219;SDS011;62580;54.416;11.120;2022-09-09T04:16:29;1.60;;;1.50;;
74219;SDS011;62580;54.416;11.120;2022-09-09T04:26:30;1.50;;;1.40;;
74219;SDS011;62580;54.416;11.120;2022-09-09T04:36:32;1.67;;;1.57;;
74219;SDS011;62580;54.416;11.120;2022-09-09T04:46:33;1.60;;;1.50;;
74219;SDS011;62580;54.416;11.120;2022-09-09T04:56:35;1.50;;;1.40;;
74219;SDS011;62580;54.416;11.120;2022-09-09T05:06:36;1.33;;;1.23;;
74219;SDS011;62580;54.416;11.120;2022-09-09T05:16:38;1.80;;;1.70;;
74219;SDS011;62580;54.416;11.120;2022-09-09T05:26:39;1.90;;;1.80;;
74219;SDS011;62580;54.416;11.120;2022-09-09T05:36:41;1.90;;;1.70;;
74219;SDS011;62580;54.416;11.120;2022-09-09T05:46:41;1.80;;;1.70;;
74219;SDS011;62580;54.416;11.120;2022-09-09T05:56:43;1.80;;;1.70;;
74219;SDS011;62580;54.416;11.120;2022-09-09T06:06:46;2.10;;;1.90;;
74219;SDS011;62580;54.416;11.120;2022-09-09T06:16:48;2.10;;;2.00;;
74219;SDS011;62580;54.416;11.120;2022-09-09T06:26:49;2.10;;;1.90;;
74219;SDS011;62580;54.416;11.120;2022-09-09T06:36:51;1.80;;;1.70;;
74219;SDS011;62580;54.416;11.120;2022-09-09T06:46:52;2.00;;;1.90;;
74219;SDS011;62580;54.416;11.120;2022-09-09T06:56:54;2.00;;;1.90;;
74219;SDS011;62580;54.416;11.120;2022-09-09T07:06:57;1.90;;;1.80;;
74219;SDS011;62580;54.416;11.120;2022-09-09T07:16:59;1.90;;;1.80;;
74219;SDS011;62580;54.416;11.120;2022-09-09T07:27:00;1.60;;;1.50;;
74219;SDS011;62580;54.416;11.120;2022-09-09T07:37:02;1.80;;;1.70;;
74219;SDS011;62580;54.416;11.120;2022-09-09T07:47:03;1.80;;;1.70;;
74219;SDS011;62580;54.416;11.120;2022-09-09T07:57:05;1.80;;;1.70;;
74219;SDS011;62580;54.416;11.120;2022-09-09T08:07:08;1.70;;;1.60;;
74219;SDS011;62580;54.416;11.120;2022-09-09T08:17:10;1.90;;;1.80;;
74219;SDS011;62580;54.416;11.120;2022-09-09T08:27:11;1.80;;;1.70;;
74219;SDS011;62580;54.416;11.120;2022-09-09T08:37:13;1.90;;;1.80;;
74219;SDS011;62580;54.416;11.120;2022-09-09T08:47:16;1.87;;;1.77;;
74219;SDS011;62580;54.416;11.120;2022-09-09T08:57:27;2.10;;;2.00;;
74219;SDS011;62580;54.416;11.120;2022-09-09T09:07:40;1.80;;;1.70;;
74219;SDS011;62580;54.416;11.120;2022-09-09T09:17:53;1.90;;;1.80;;
74219;SDS011;62580;54.416;11.120;2022-09-09T09:27:57;1.70;;;1.60;;
74219;SDS011;62580;54.416;11.120;2022-09-09T09:38:08;1.80;;;1.70;;
74219;SDS011;62580;54.416;11.120;2022-09-09T09:48:16;1.90;;;1.80;;
74219;SDS011;62580;54.416;11.120;2022-09-09T09:58:18;1.77;;;1.67;;
74219;SDS011;62580;54.416;11.120;2022-09-09T10:08:19;1.80;;;1.70;;
74219;SDS011;62580;54.416;11.120;2022-09-09T10:18:25;1.80;;;1.60;;
74219;SDS011;62580;54.416;11.120;2022-09-09T10:28:54;1.80;;;1.70;;
74219;SDS011;62580;54.416;11.120;2022-09-09T10:39:11;1.70;;;1.60;;
74219;SDS011;62580;54.416;11.120;2022-09-09T10:49:25;1.73;;;1.63;;
74219;SDS011;62580;54.416;11.120;2022-09-09T10:59:43;1.67;;;1.57;;
74219;SDS011;62580;54.416;11.120;2022-09-09T11:09:50;1.77;;;1.67;;
74219;SDS011;62580;54.416;11.120;2022-09-09T11:19:57;1.87;;;1.77;;
74219;SDS011;62580;54.416;11.120;2022-09-09T11:30:02;1.60;;;1.50;;
74219;SDS011;62580;54.416;11.120;2022-09-09T11:40:20;1.70;;;1.60;;
74219;SDS011;62580;54.416;11.120;2022-09-09T11:50:31;1.77;;;1.67;;
74219;SDS011;62580;54.416;11.120;2022-09-09T12:00:35;1.70;;;1.60;;
74219;SDS011;62580;54.416;11.120;2022-09-09T12:10:39;1.93;;;1.60;;
74219;SDS011;62580;54.416;11.120;2022-09-09T12:20:41;1.70;;;1.60;;
74219;SDS011;62580;54.416;11.120;2022-09-09T12:30:55;1.70;;;1.60;;
74219;SDS011;62580;54.416;11.120;2022-09-09T12:41:05;1.80;;;1.70;;
74219;SDS011;62580;54.416;11.120;2022-09-09T12:51:18;1.80;;;1.70;;
74219;SDS011;62580;54.416;11.120;2022-09-09T13:01:25;1.90;;;1.70;;
74219;SDS011;62580;54.416;11.120;2022-09-09T13:11:29;1.90;;;1.80;;
74219;SDS011;62580;54.416;11.120;2022-09-09T13:21:37;1.73;;;1.63;;
74219;SDS011;62580;54.416;11.120;2022-09-09T13:31:39;1.60;;;1.50;;
74219;SDS011;62580;54.416;11.120;2022-09-09T13:41:43;1.70;;;1.60;;
74219;SDS011;62580;54.416;11.120;2022-09-09T13:51:45;1.97;;;1.87;;
74219;SDS011;62580;54.416;11.120;2022-09-09T14:01:49;1.80;;;1.70;;
74219;SDS011;62580;54.416;11.120;2022-09-09T14:11:50;1.60;;;1.50;;
74219;SDS011;62580;54.416;11.120;2022-09-09T14:21:52;1.90;;;1.80;;
74219;SDS011;62580;54.416;11.120;2022-09-09T14:31:52;1.90;;;1.70;;
74219;SDS011;62580;54.416;11.120;2022-09-09T14:41:54;1.70;;;1.60;;
74219;SDS011;62580;54.416;11.120;2022-09-09T14:51:55;1.60;;;1.50;;
74219;SDS011;62580;54.416;11.120;2022-09-09T15:01:57;1.70;;;1.60;;
74219;SDS011;62580;54.416;11.120;2022-09-09T15:11:58;1.60;;;1.50;;
74219;SDS011;62580;54.416;11.120;2022-09-09T15:22:00;1.70;;;1.60;;
74219;SDS011;62580;54.416;11.120;2022-09-09T15:32:00;1.60;;;1.50;;
74219;SDS011;62580;54.416;11.120;2022-09-09T15:42:03;1.60;;;1.50;;
74219;SDS011;62580;54.416;11.120;2022-09-09T15:52:04;1.60;;;1.50;;
74219;SDS011;62580;54.416;11.120;2022-09-09T16:02:06;1.90;;;1.50;;
74219;SDS011;62580;54.416;11.120;2022-09-09T16:12:07;1.70;;;1.60;;
74219;SDS011;62580;54.416;11.120;2022-09-09T16:22:09;1.70;;;1.60;;
74219;SDS011;62580;54.416;11.120;2022-09-09T16:32:09;1.80;;;1.70;;
74219;SDS011;62580;54.416;11.120;2022-09-09T16:42:11;1.60;;;1.50;;
74219;SDS011;62580;54.416;11.120;2022-09-09T16:52:12;1.67;;;1.57;;
74219;SDS011;62580;54.416;11.120;2022-09-09T17:02:14;1.57;;;1.47;;
74219;SDS011;62580;54.416;11.120;2022-09-09T17:12:14;1.50;;;1.40;;
74219;SDS011;62580;54.416;11.120;2022-09-09T17:22:16;1.60;;;1.50;;
74219;SDS011;62580;54.416;11.120;2022-09-09T17:32:17;1.60;;;1.50;;
74219;SDS011;62580;54.416;11.120;2022-09-09T17:42:19;1.50;;;1.40;;
74219;SDS011;62580;54.416;11.120;2022-09-09T17:52:20;1.70;;;1.60;;
74219;SDS011;62580;54.416;11.120;2022-09-09T18:02:22;1.33;;;1.23;;
74219;SDS011;62580;54.416;11.120;2022-09-09T18:12:22;1.70;;;1.60;;
74219;SDS011;62580;54.416;11.120;2022-09-09T18:22:24;1.60;;;1.50;;
74219;SDS011;62580;54.416;11.120;2022-09-09T18:32:25;1.60;;;1.50;;
74219;SDS011;62580;54.416;11.120;2022-09-09T18:42:27;1.57;;;1.47;;
74219;SDS011;62580;54.416;11.120;2022-09-09T18:52:28;1.50;;;1.40;;
74219;SDS011;62580;54.416;11.120;2022-09-09T19:02:29;1.50;;;1.40;;
74219;SDS011;62580;54.416;11.120;2022-09-09T19:12:30;1.70;;;1.60;;
74219;SDS011;62580;54.416;11.120;2022-09-09T19:22:32;1.50;;;1.40;;
74219;SDS011;62580;54.416;11.120;2022-09-09T19:32:33;1.50;;;1.40;;
74219;SDS011;62580;54.416;11.120;2022-09-09T19:42:35;7.00;;;2.20;;
74219;SDS011;62580;54.416;11.120;2022-09-09T19:52:35;18.20;;;2.90;;
74219;SDS011;62580;54.416;11.120;2022-09-09T20:02:38;10.90;;;2.40;;
74219;SDS011;62580;54.416;11.120;2022-09-09T20:12:38;7.67;;;1.90;;
74219;SDS011;62580;54.416;11.120;2022-09-09T20:22:40;5.00;;;2.00;;
74219;SDS011;62580;54.416;11.120;2022-09-09T20:32:41;7.23;;;2.10;;
74219;SDS011;62580;54.416;11.120;2022-09-09T20:42:43;6.30;;;2.00;;
74219;SDS011;62580;54.416;11.120;2022-09-09T20:52:44;5.37;;;2.00;;
74219;SDS011;62580;54.416;11.120;2022-09-09T21:02:46;4.60;;;1.90;;
74219;SDS011;62580;54.416;11.120;2022-09-09T21:12:47;3.40;;;1.50;;
74219;SDS011;62580;54.416;11.120;2022-09-09T21:22:50;5.03;;;1.70;;
74219;SDS011;62580;54.416;11.120;2022-09-09T21:32:51;4.37;;;1.60;;
74219;SDS011;62580;54.416;11.120;2022-09-09T21:42:54;4.10;;;1.80;;
74219;SDS011;62580;54.416;11.120;2022-09-09T21:52:55;1.67;;;1.40;;
74219;SDS011;62580;54.416;11.120;2022-09-09T22:02:57;4.03;;;1.70;;
74219;SDS011;62580;54.416;11.120;2022-09-09T22:12:57;6.43;;;1.77;;
74219;SDS011;62580;54.416;11.120;2022-09-09T22:22:59;6.00;;;1.93;;
74219;SDS011;62580;54.416;11.120;2022-09-09T22:33:00;6.63;;;1.70;;
74219;SDS011;62580;54.416;11.120;2022-09-09T22:43:02;4.23;;;1.50;;
74219;SDS011;62580;54.416;11.120;2022-09-09T22:53:03;3.77;;;1.70;;
74219;SDS011;62580;54.416;11.120;2022-09-09T23:03:06;5.73;;;2.00;;
74219;SDS011;62580;54.416;11.120;2022-09-09T23:13:06;4.30;;;1.70;;
74219;SDS011;62580;54.416;11.120;2022-09-09T23:23:08;5.20;;;1.80;;
74219;SDS011;62580;54.416;11.120;2022-09-09T23:33:09;5.43;;;1.70;;
74219;SDS011;62580;54.416;11.120;2022-09-09T23:43:11;2.30;;;1.47;;
74219;SDS011;62580;54.416;11.120;2022-09-09T23:53:12;3.87;;;1.73;;
